Sidell, IL (61876)

7:34 PM CST on February 25, 2017 (GMT -0600)
Walker Farms | | Change Station

Elev 211 ft 39.91 °N, 88.00 °W | Updated 14 minutes ago

Partly Cloudy
Partly Cloudy
26.4 °F
Feels Like 26 °F
N
1.1
Wind Variable Wind from WNW

Today
High -- | Low -- °F
--% Chance of Precip.
Yesterday
High -- | Low -- °F
Precip. -- in
Pressure 30.07 in
Visibility 10.0 miles
Clouds Clear
Windchill 26 °F
Dew Point 16 °F
Humidity 64%
Rainfall 0.00 in
Snow Depth Not available.
6:29 AM 5:39 PM
Waning Crescent, 0% visible
METAR KPRG 260115Z AUTO 29010G14KT 10SM CLR M02/M09 A3007 RMK AO2 T10211090
Pressure 30.07 in
Visibility 10.0 miles
Clouds Clear
Windchill 26 °F
Dew Point 16 °F
Humidity 64%
Rainfall 0.00 in
Snow Depth Not available.
6:29 AM 5:39 PM
Waning Crescent, 0% visible
METAR KPRG 260115Z AUTO 29010G14KT 10SM CLR M02/M09 A3007 RMK AO2 T10211090

Get Your Daily Forecast Email!

Thanks for signing up!

Be on the lookout for a verification email in your inbox.

You'll start receiving the daily forecast at 8 AM.

×

10-Day Weather Forecast

Almanac

Astronomy

Feb. 25, 2017 Rise Set
Actual Time
Civil Twilight
Nautical Twilight
Astronomical Twilight
Moon
Length of Visible Light
Length of Day
Tomorrow will be .
, % of the Moon is Illuminated

Today's Extremes

State Highs State Lows

Community

WunderPhotos

Upload Photos

1,962,540 photos uploaded!

WunderBlog® & News

Nearby

Air Quality

  Air Quality AQ Index Pollutant
Not available.

Snow Depth

Station Depth Elevation

Earthquake Activity

City Distance Mag. Time & Date
Minimum magnitude displayed is 2.5.

Coastal Water Temperatures

Place Temperature

Stations

Nearby Weather Stations

Station Location Temp. Windchill Dew Point Humidity Wind Precip. Elev Updated Type
                   

Watches & Warnings

There are currently no watches in effect.